sensor_id;sensor_type;location;lat;lon;timestamp;temperature;humidity
2729;DHT22;1372;47.956;7.830;2022-09-28T00:01:57;12.30;99.90
2729;DHT22;1372;47.956;7.830;2022-09-28T00:04:25;12.40;99.90
2729;DHT22;1372;47.956;7.830;2022-09-28T00:06:54;12.40;99.90
2729;DHT22;1372;47.956;7.830;2022-09-28T00:09:25;12.40;99.90
2729;DHT22;1372;47.956;7.830;2022-09-28T00:11:54;12.50;99.90
2729;DHT22;1372;47.956;7.830;2022-09-28T00:14:23;12.50;99.90
2729;DHT22;1372;47.956;7.830;2022-09-28T00:16:52;12.50;99.90
2729;DHT22;1372;47.956;7.830;2022-09-28T00:19:20;12.50;99.90
2729;DHT22;1372;47.956;7.830;2022-09-28T00:21:52;12.50;99.90
2729;DHT22;1372;47.956;7.830;2022-09-28T00:24:20;12.50;99.90
2729;DHT22;1372;47.956;7.830;2022-09-28T00:26:56;12.60;99.90
2729;DHT22;1372;47.956;7.830;2022-09-28T00:29:28;12.50;99.90
2729;DHT22;1372;47.956;7.830;2022-09-28T00:32:00;12.60;99.90
2729;DHT22;1372;47.956;7.830;2022-09-28T00:34:32;12.50;99.90
2729;DHT22;1372;47.956;7.830;2022-09-28T00:37:03;12.50;99.90
2729;DHT22;1372;47.956;7.830;2022-09-28T00:39:35;12.60;99.90
2729;DHT22;1372;47.956;7.830;2022-09-28T00:42:12;12.50;99.90
2729;DHT22;1372;47.956;7.830;2022-09-28T00:44:46;12.40;99.90
2729;DHT22;1372;47.956;7.830;2022-09-28T00:47:42;12.50;99.90
2729;DHT22;1372;47.956;7.830;2022-09-28T00:50:21;12.60;99.90
2729;DHT22;1372;47.956;7.830;2022-09-28T00:52:56;12.60;99.90
2729;DHT22;1372;47.956;7.830;2022-09-28T00:55:31;12.60;99.90
2729;DHT22;1372;47.956;7.830;2022-09-28T00:58:06;12.50;99.90
2729;DHT22;1372;47.956;7.830;2022-09-28T01:00:37;12.50;99.90
2729;DHT22;1372;47.956;7.830;2022-09-28T01:03:07;12.60;99.90
2729;DHT22;1372;47.956;7.830;2022-09-28T01:05:38;12.60;99.90
2729;DHT22;1372;47.956;7.830;2022-09-28T01:08:07;12.50;99.90
2729;DHT22;1372;47.956;7.830;2022-09-28T01:10:38;12.50;99.90
2729;DHT22;1372;47.956;7.830;2022-09-28T01:13:12;12.50;99.90
2729;DHT22;1372;47.956;7.830;2022-09-28T01:15:47;12.60;99.90
2729;DHT22;1372;47.956;7.830;2022-09-28T01:18:24;12.60;99.90
2729;DHT22;1372;47.956;7.830;2022-09-28T01:20:59;12.60;99.90
2729;DHT22;1372;47.956;7.830;2022-09-28T01:26:49;12.60;99.90
2729;DHT22;1372;47.956;7.830;2022-09-28T01:29:36;12.60;99.90
2729;DHT22;1372;47.956;7.830;2022-09-28T01:32:16;12.60;99.90
2729;DHT22;1372;47.956;7.830;2022-09-28T01:34:57;12.50;99.90
2729;DHT22;1372;47.956;7.830;2022-09-28T01:37:34;12.50;99.90
2729;DHT22;1372;47.956;7.830;2022-09-28T01:40:11;12.50;99.90
2729;DHT22;1372;47.956;7.830;2022-09-28T01:42:44;12.50;99.90
2729;DHT22;1372;47.956;7.830;2022-09-28T01:45:17;12.40;99.90
2729;DHT22;1372;47.956;7.830;2022-09-28T01:47:54;12.50;99.90
2729;DHT22;1372;47.956;7.830;2022-09-28T01:50:27;12.50;99.90
2729;DHT22;1372;47.956;7.830;2022-09-28T01:53:01;12.40;99.90
2729;DHT22;1372;47.956;7.830;2022-09-28T01:55:35;12.40;99.90
2729;DHT22;1372;47.956;7.830;2022-09-28T01:58:11;12.30;99.90
2729;DHT22;1372;47.956;7.830;2022-09-28T02:00:52;12.30;99.90
2729;DHT22;1372;47.956;7.830;2022-09-28T02:03:30;12.30;99.90
2729;DHT22;1372;47.956;7.830;2022-09-28T02:06:06;12.30;99.90
2729;DHT22;1372;47.956;7.830;2022-09-28T02:08:41;12.20;99.90
2729;DHT22;1372;47.956;7.830;2022-09-28T02:11:15;12.20;99.90
2729;DHT22;1372;47.956;7.830;2022-09-28T02:13:48;12.10;99.90
2729;DHT22;1372;47.956;7.830;2022-09-28T02:16:21;12.10;99.90
2729;DHT22;1372;47.956;7.830;2022-09-28T02:18:56;12.10;99.90
2729;DHT22;1372;47.956;7.830;2022-09-28T02:21:27;12.10;99.90
2729;DHT22;1372;47.956;7.830;2022-09-28T02:24:02;12.10;99.90
2729;DHT22;1372;47.956;7.830;2022-09-28T02:26:36;12.10;99.90
2729;DHT22;1372;47.956;7.830;2022-09-28T02:29:08;12.00;99.90
2729;DHT22;1372;47.956;7.830;2022-09-28T02:31:36;12.00;99.90
2729;DHT22;1372;47.956;7.830;2022-09-28T02:34:05;11.90;99.90
2729;DHT22;1372;47.956;7.830;2022-09-28T02:36:34;11.90;99.90
2729;DHT22;1372;47.956;7.830;2022-09-28T02:39:03;11.90;99.90
2729;DHT22;1372;47.956;7.830;2022-09-28T02:41:41;11.90;99.90
2729;DHT22;1372;47.956;7.830;2022-09-28T02:44:35;12.00;99.90
2729;DHT22;1372;47.956;7.830;2022-09-28T02:47:15;12.10;99.90
2729;DHT22;1372;47.956;7.830;2022-09-28T02:49:56;12.10;99.90
2729;DHT22;1372;47.956;7.830;2022-09-28T02:52:42;12.10;99.90
2729;DHT22;1372;47.956;7.830;2022-09-28T02:55:30;12.10;99.90
2729;DHT22;1372;47.956;7.830;2022-09-28T02:58:20;12.10;99.90
2729;DHT22;1372;47.956;7.830;2022-09-28T03:01:03;12.10;99.90
2729;DHT22;1372;47.956;7.830;2022-09-28T03:03:49;12.10;99.90
2729;DHT22;1372;47.956;7.830;2022-09-28T03:06:23;12.10;99.90
2729;DHT22;1372;47.956;7.830;2022-09-28T03:08:59;12.00;99.90
2729;DHT22;1372;47.956;7.830;2022-09-28T03:11:33;12.10;99.90
2729;DHT22;1372;47.956;7.830;2022-09-28T03:14:04;12.10;99.90
2729;DHT22;1372;47.956;7.830;2022-09-28T03:16:34;12.20;99.90
2729;DHT22;1372;47.956;7.830;2022-09-28T03:19:03;12.20;99.90
2729;DHT22;1372;47.956;7.830;2022-09-28T03:21:33;12.20;99.90
2729;DHT22;1372;47.956;7.830;2022-09-28T03:24:02;12.20;99.90
2729;DHT22;1372;47.956;7.830;2022-09-28T03:26:34;12.20;99.90
2729;DHT22;1372;47.956;7.830;2022-09-28T03:29:02;12.30;99.90
2729;DHT22;1372;47.956;7.830;2022-09-28T03:31:31;12.30;99.90
2729;DHT22;1372;47.956;7.830;2022-09-28T03:34:04;12.20;99.90
2729;DHT22;1372;47.956;7.830;2022-09-28T03:36:33;12.20;99.90
2729;DHT22;1372;47.956;7.830;2022-09-28T03:39:01;12.20;99.90
2729;DHT22;1372;47.956;7.830;2022-09-28T03:41:30;12.20;99.90
2729;DHT22;1372;47.956;7.830;2022-09-28T03:44:02;12.10;99.90
2729;DHT22;1372;47.956;7.830;2022-09-28T03:46:31;12.00;99.90
2729;DHT22;1372;47.956;7.830;2022-09-28T03:49:01;12.10;99.90
2729;DHT22;1372;47.956;7.830;2022-09-28T03:51:34;12.00;99.90
2729;DHT22;1372;47.956;7.830;2022-09-28T03:54:03;12.00;99.90
2729;DHT22;1372;47.956;7.830;2022-09-28T03:56:32;12.10;99.90
2729;DHT22;1372;47.956;7.830;2022-09-28T03:59:02;12.00;99.90
2729;DHT22;1372;47.956;7.830;2022-09-28T04:01:30;12.00;99.90
2729;DHT22;1372;47.956;7.830;2022-09-28T04:03:59;12.00;99.90
2729;DHT22;1372;47.956;7.830;2022-09-28T04:06:28;11.90;99.90
2729;DHT22;1372;47.956;7.830;2022-09-28T04:08:59;12.00;99.90
2729;DHT22;1372;47.956;7.830;2022-09-28T04:11:27;12.00;99.90
2729;DHT22;1372;47.956;7.830;2022-09-28T04:14:13;11.90;99.90
2729;DHT22;1372;47.956;7.830;2022-09-28T04:16:42;12.00;99.90
2729;DHT22;1372;47.956;7.830;2022-09-28T04:19:11;12.00;99.90
2729;DHT22;1372;47.956;7.830;2022-09-28T04:21:40;12.00;99.90
2729;DHT22;1372;47.956;7.830;2022-09-28T04:24:10;12.10;99.90
2729;DHT22;1372;47.956;7.830;2022-09-28T04:26:39;12.00;99.90
2729;DHT22;1372;47.956;7.830;2022-09-28T04:29:08;12.10;99.90
2729;DHT22;1372;47.956;7.830;2022-09-28T04:31:44;12.10;99.90
2729;DHT22;1372;47.956;7.830;2022-09-28T04:34:18;12.00;99.90
2729;DHT22;1372;47.956;7.830;2022-09-28T04:36:51;11.90;99.90
2729;DHT22;1372;47.956;7.830;2022-09-28T04:39:22;12.00;99.90
2729;DHT22;1372;47.956;7.830;2022-09-28T04:41:51;11.90;99.90
2729;DHT22;1372;47.956;7.830;2022-09-28T04:44:21;12.00;99.90
2729;DHT22;1372;47.956;7.830;2022-09-28T04:46:54;11.90;99.90
2729;DHT22;1372;47.956;7.830;2022-09-28T04:49:25;11.90;99.90
2729;DHT22;1372;47.956;7.830;2022-09-28T04:51:54;11.90;99.90
2729;DHT22;1372;47.956;7.830;2022-09-28T04:54:24;11.90;99.90
2729;DHT22;1372;47.956;7.830;2022-09-28T04:56:53;11.90;99.90
2729;DHT22;1372;47.956;7.830;2022-09-28T04:59:22;11.90;99.90
2729;DHT22;1372;47.956;7.830;2022-09-28T05:01:57;12.00;99.90
2729;DHT22;1372;47.956;7.830;2022-09-28T05:04:25;12.10;99.90
2729;DHT22;1372;47.956;7.830;2022-09-28T05:06:55;12.10;99.90
2729;DHT22;1372;47.956;7.830;2022-09-28T05:13:42;12.10;99.90
2729;DHT22;1372;47.956;7.830;2022-09-28T05:16:13;12.10;99.90
2729;DHT22;1372;47.956;7.830;2022-09-28T05:18:43;12.10;99.90
2729;DHT22;1372;47.956;7.830;2022-09-28T05:21:15;12.10;99.90
2729;DHT22;1372;47.956;7.830;2022-09-28T05:23:46;12.20;99.90
2729;DHT22;1372;47.956;7.830;2022-09-28T05:26:15;12.20;99.90
2729;DHT22;1372;47.956;7.830;2022-09-28T05:28:45;12.20;99.90
2729;DHT22;1372;47.956;7.830;2022-09-28T05:31:16;12.20;99.90
2729;DHT22;1372;47.956;7.830;2022-09-28T05:33:45;12.20;99.90
2729;DHT22;1372;47.956;7.830;2022-09-28T05:36:15;12.20;99.90
2729;DHT22;1372;47.956;7.830;2022-09-28T05:38:44;12.20;99.90
2729;DHT22;1372;47.956;7.830;2022-09-28T05:41:12;12.20;99.90
2729;DHT22;1372;47.956;7.830;2022-09-28T05:43:47;12.10;99.90
2729;DHT22;1372;47.956;7.830;2022-09-28T05:46:17;12.10;99.90
2729;DHT22;1372;47.956;7.830;2022-09-28T05:48:48;12.20;99.90
2729;DHT22;1372;47.956;7.830;2022-09-28T05:51:19;12.20;99.90
2729;DHT22;1372;47.956;7.830;2022-09-28T05:53:48;12.20;99.90
2729;DHT22;1372;47.956;7.830;2022-09-28T05:56:17;12.20;99.90
2729;DHT22;1372;47.956;7.830;2022-09-28T05:59:14;12.30;99.90
2729;DHT22;1372;47.956;7.830;2022-09-28T06:01:45;12.20;99.90
2729;DHT22;1372;47.956;7.830;2022-09-28T06:04:25;12.20;99.90
2729;DHT22;1372;47.956;7.830;2022-09-28T06:06:56;12.20;99.90
2729;DHT22;1372;47.956;7.830;2022-09-28T06:09:24;12.20;99.90
2729;DHT22;1372;47.956;7.830;2022-09-28T06:11:53;12.20;99.90
2729;DHT22;1372;47.956;7.830;2022-09-28T06:14:24;12.20;99.90
2729;DHT22;1372;47.956;7.830;2022-09-28T06:17:03;12.20;99.90
2729;DHT22;1372;47.956;7.830;2022-09-28T06:19:32;12.20;99.90
2729;DHT22;1372;47.956;7.830;2022-09-28T06:22:00;12.20;99.90
2729;DHT22;1372;47.956;7.830;2022-09-28T06:24:30;12.30;99.90
2729;DHT22;1372;47.956;7.830;2022-09-28T06:26:59;12.30;99.90
2729;DHT22;1372;47.956;7.830;2022-09-28T06:29:29;12.20;99.90
2729;DHT22;1372;47.956;7.830;2022-09-28T06:35:50;12.30;99.90
2729;DHT22;1372;47.956;7.830;2022-09-28T06:38:27;12.20;99.90
2729;DHT22;1372;47.956;7.830;2022-09-28T06:40:56;12.20;99.90
2729;DHT22;1372;47.956;7.830;2022-09-28T06:43:43;12.20;99.90
2729;DHT22;1372;47.956;7.830;2022-09-28T06:46:13;12.20;99.90
2729;DHT22;1372;47.956;7.830;2022-09-28T06:48:42;12.20;99.90
2729;DHT22;1372;47.956;7.830;2022-09-28T06:51:11;12.20;99.90
2729;DHT22;1372;47.956;7.830;2022-09-28T06:53:40;12.30;99.90
2729;DHT22;1372;47.956;7.830;2022-09-28T06:56:10;12.30;99.90
2729;DHT22;1372;47.956;7.830;2022-09-28T06:58:39;12.30;99.90
2729;DHT22;1372;47.956;7.830;2022-09-28T07:05:55;12.10;99.90
2729;DHT22;1372;47.956;7.830;2022-09-28T07:11:58;11.90;99.90
2729;DHT22;1372;47.956;7.830;2022-09-28T07:14:28;11.80;99.90
2729;DHT22;1372;47.956;7.830;2022-09-28T07:17:13;11.80;99.90
2729;DHT22;1372;47.956;7.830;2022-09-28T07:23:36;11.60;99.90
2729;DHT22;1372;47.956;7.830;2022-09-28T07:26:18;11.40;99.90
2729;DHT22;1372;47.956;7.830;2022-09-28T07:28:50;11.30;99.90
2729;DHT22;1372;47.956;7.830;2022-09-28T07:31:21;11.40;99.90
2729;DHT22;1372;47.956;7.830;2022-09-28T07:33:54;11.40;99.90
2729;DHT22;1372;47.956;7.830;2022-09-28T07:36:24;11.30;99.90
2729;DHT22;1372;47.956;7.830;2022-09-28T07:38:54;11.40;99.90
2729;DHT22;1372;47.956;7.830;2022-09-28T07:41:23;11.40;99.90
2729;DHT22;1372;47.956;7.830;2022-09-28T07:43:59;11.40;99.90
2729;DHT22;1372;47.956;7.830;2022-09-28T07:46:32;11.30;99.90
2729;DHT22;1372;47.956;7.830;2022-09-28T07:49:02;11.40;99.90
2729;DHT22;1372;47.956;7.830;2022-09-28T07:51:33;11.30;99.90
2729;DHT22;1372;47.956;7.830;2022-09-28T07:54:04;11.20;99.90
2729;DHT22;1372;47.956;7.830;2022-09-28T07:56:42;11.30;99.90
2729;DHT22;1372;47.956;7.830;2022-09-28T07:59:11;11.30;99.90
2729;DHT22;1372;47.956;7.830;2022-09-28T08:01:42;11.40;99.90
2729;DHT22;1372;47.956;7.830;2022-09-28T08:04:24;11.30;99.90
2729;DHT22;1372;47.956;7.830;2022-09-28T08:06:56;11.30;99.90
2729;DHT22;1372;47.956;7.830;2022-09-28T08:09:53;11.30;99.90
2729;DHT22;1372;47.956;7.830;2022-09-28T08:13:32;11.20;99.90
2729;DHT22;1372;47.956;7.830;2022-09-28T08:16:03;11.40;99.90
2729;DHT22;1372;47.956;7.830;2022-09-28T08:18:38;11.40;99.90
2729;DHT22;1372;47.956;7.830;2022-09-28T08:21:09;11.30;99.90
2729;DHT22;1372;47.956;7.830;2022-09-28T08:23:56;11.30;99.90
2729;DHT22;1372;47.956;7.830;2022-09-28T08:26:26;11.30;99.90
2729;DHT22;1372;47.956;7.830;2022-09-28T08:28:57;11.30;99.90
2729;DHT22;1372;47.956;7.830;2022-09-28T08:31:26;11.30;99.90
2729;DHT22;1372;47.956;7.830;2022-09-28T08:33:56;11.20;99.90
2729;DHT22;1372;47.956;7.830;2022-09-28T08:40:49;11.30;99.90
2729;DHT22;1372;47.956;7.830;2022-09-28T08:44:49;11.30;99.90
2729;DHT22;1372;47.956;7.830;2022-09-28T08:47:27;11.30;99.90
2729;DHT22;1372;47.956;7.830;2022-09-28T08:50:21;11.40;99.90
2729;DHT22;1372;47.956;7.830;2022-09-28T08:52:58;11.50;99.90
2729;DHT22;1372;47.956;7.830;2022-09-28T08:55:43;11.50;99.90
2729;DHT22;1372;47.956;7.830;2022-09-28T08:58:31;11.30;99.90
2729;DHT22;1372;47.956;7.830;2022-09-28T09:02:22;11.30;99.90
2729;DHT22;1372;47.956;7.830;2022-09-28T09:05:19;11.40;99.90
2729;DHT22;1372;47.956;7.830;2022-09-28T09:08:47;11.40;99.90
2729;DHT22;1372;47.956;7.830;2022-09-28T09:12:42;11.40;99.90
2729;DHT22;1372;47.956;7.830;2022-09-28T09:20:14;11.50;99.90
2729;DHT22;1372;47.956;7.830;2022-09-28T09:23:53;11.40;99.90
2729;DHT22;1372;47.956;7.830;2022-09-28T09:26:32;11.50;99.90
2729;DHT22;1372;47.956;7.830;2022-09-28T09:29:17;11.50;99.90
2729;DHT22;1372;47.956;7.830;2022-09-28T09:32:22;11.40;99.90
2729;DHT22;1372;47.956;7.830;2022-09-28T09:43:26;11.60;99.90
2729;DHT22;1372;47.956;7.830;2022-09-28T09:46:16;11.70;99.90
2729;DHT22;1372;47.956;7.830;2022-09-28T10:48:12;11.70;99.90
2729;DHT22;1372;47.956;7.830;2022-09-28T10:50:56;11.60;99.90
2729;DHT22;1372;47.956;7.830;2022-09-28T10:53:27;11.60;99.90
2729;DHT22;1372;47.956;7.830;2022-09-28T10:55:58;11.60;99.90
2729;DHT22;1372;47.956;7.830;2022-09-28T10:58:33;11.70;99.90
2729;DHT22;1372;47.956;7.830;2022-09-28T11:01:08;11.60;99.90
2729;DHT22;1372;47.956;7.830;2022-09-28T11:03:50;11.60;99.90
2729;DHT22;1372;47.956;7.830;2022-09-28T11:06:26;11.60;99.90
2729;DHT22;1372;47.956;7.830;2022-09-28T11:08:59;11.60;99.90
2729;DHT22;1372;47.956;7.830;2022-09-28T11:11:30;11.60;99.90
2729;DHT22;1372;47.956;7.830;2022-09-28T11:14:23;11.60;99.90
2729;DHT22;1372;47.956;7.830;2022-09-28T11:17:15;11.60;99.90
2729;DHT22;1372;47.956;7.830;2022-09-28T11:19:47;11.50;99.90
2729;DHT22;1372;47.956;7.830;2022-09-28T11:22:20;11.60;99.90
2729;DHT22;1372;47.956;7.830;2022-09-28T11:24:51;11.60;99.90
2729;DHT22;1372;47.956;7.830;2022-09-28T11:27:23;11.60;99.90
2729;DHT22;1372;47.956;7.830;2022-09-28T11:29:57;11.60;99.90
2729;DHT22;1372;47.956;7.830;2022-09-28T11:32:31;11.60;99.90
2729;DHT22;1372;47.956;7.830;2022-09-28T11:35:16;11.60;99.90
2729;DHT22;1372;47.956;7.830;2022-09-28T11:37:59;11.60;99.90
2729;DHT22;1372;47.956;7.830;2022-09-28T11:40:47;11.50;99.90
2729;DHT22;1372;47.956;7.830;2022-09-28T11:43:43;11.50;99.90
2729;DHT22;1372;47.956;7.830;2022-09-28T11:46:24;11.50;99.90
2729;DHT22;1372;47.956;7.830;2022-09-28T11:49:04;11.50;99.90
2729;DHT22;1372;47.956;7.830;2022-09-28T11:51:39;11.60;99.90
2729;DHT22;1372;47.956;7.830;2022-09-28T11:54:12;11.50;99.90
2729;DHT22;1372;47.956;7.830;2022-09-28T11:56:47;11.40;99.90
2729;DHT22;1372;47.956;7.830;2022-09-28T11:59:20;11.40;99.90
2729;DHT22;1372;47.956;7.830;2022-09-28T12:01:56;11.40;99.90
2729;DHT22;1372;47.956;7.830;2022-09-28T12:04:30;11.40;99.90
2729;DHT22;1372;47.956;7.830;2022-09-28T12:07:09;11.40;99.90
2729;DHT22;1372;47.956;7.830;2022-09-28T12:09:45;11.40;99.90
2729;DHT22;1372;47.956;7.830;2022-09-28T12:12:22;11.50;99.90
2729;DHT22;1372;47.956;7.830;2022-09-28T12:14:56;11.50;99.90
2729;DHT22;1372;47.956;7.830;2022-09-28T12:17:31;11.50;99.90
2729;DHT22;1372;47.956;7.830;2022-09-28T12:20:14;11.50;99.90
2729;DHT22;1372;47.956;7.830;2022-09-28T12:22:58;11.60;99.90
2729;DHT22;1372;47.956;7.830;2022-09-28T12:25:37;11.60;99.90
2729;DHT22;1372;47.956;7.830;2022-09-28T12:28:20;11.50;99.90
2729;DHT22;1372;47.956;7.830;2022-09-28T12:30:57;11.50;99.90
2729;DHT22;1372;47.956;7.830;2022-09-28T12:33:28;11.40;99.90
2729;DHT22;1372;47.956;7.830;2022-09-28T12:36:04;11.30;99.90
2729;DHT22;1372;47.956;7.830;2022-09-28T12:38:53;11.30;99.90
2729;DHT22;1372;47.956;7.830;2022-09-28T12:41:59;11.40;99.90
2729;DHT22;1372;47.956;7.830;2022-09-28T12:44:46;11.30;99.90
2729;DHT22;1372;47.956;7.830;2022-09-28T12:48:05;11.30;99.90
2729;DHT22;1372;47.956;7.830;2022-09-28T12:50:46;11.20;99.90
2729;DHT22;1372;47.956;7.830;2022-09-28T12:53:38;11.20;99.90
2729;DHT22;1372;47.956;7.830;2022-09-28T12:56:24;11.30;99.90
2729;DHT22;1372;47.956;7.830;2022-09-28T12:59:04;11.30;99.90
2729;DHT22;1372;47.956;7.830;2022-09-28T13:01:55;11.30;99.90
2729;DHT22;1372;47.956;7.830;2022-09-28T13:04:58;11.30;99.90
2729;DHT22;1372;47.956;7.830;2022-09-28T13:07:38;11.30;99.90
2729;DHT22;1372;47.956;7.830;2022-09-28T13:10:17;11.30;99.90
2729;DHT22;1372;47.956;7.830;2022-09-28T13:13:05;11.30;99.90
2729;DHT22;1372;47.956;7.830;2022-09-28T13:15:51;11.30;99.90
2729;DHT22;1372;47.956;7.830;2022-09-28T13:18:24;11.30;99.90
2729;DHT22;1372;47.956;7.830;2022-09-28T13:21:12;11.30;99.90
2729;DHT22;1372;47.956;7.830;2022-09-28T13:23:47;11.40;99.90
2729;DHT22;1372;47.956;7.830;2022-09-28T13:26:23;11.40;99.90
2729;DHT22;1372;47.956;7.830;2022-09-28T13:29:00;11.40;99.90
2729;DHT22;1372;47.956;7.830;2022-09-28T13:31:31;11.40;99.90
2729;DHT22;1372;47.956;7.830;2022-09-28T13:34:02;11.50;99.90
2729;DHT22;1372;47.956;7.830;2022-09-28T13:36:39;11.60;99.90
2729;DHT22;1372;47.956;7.830;2022-09-28T13:39:36;11.50;99.90
2729;DHT22;1372;47.956;7.830;2022-09-28T13:42:08;11.50;99.90
2729;DHT22;1372;47.956;7.830;2022-09-28T13:48:10;11.50;99.90
2729;DHT22;1372;47.956;7.830;2022-09-28T13:51:03;11.50;99.90
2729;DHT22;1372;47.956;7.830;2022-09-28T13:53:50;11.50;99.90
2729;DHT22;1372;47.956;7.830;2022-09-28T13:56:35;11.50;99.90
2729;DHT22;1372;47.956;7.830;2022-09-28T13:59:14;11.50;99.90
2729;DHT22;1372;47.956;7.830;2022-09-28T14:01:56;11.50;99.90
2729;DHT22;1372;47.956;7.830;2022-09-28T14:04:53;11.60;99.90
2729;DHT22;1372;47.956;7.830;2022-09-28T14:07:25;11.70;99.90
2729;DHT22;1372;47.956;7.830;2022-09-28T14:10:47;11.60;99.90
2729;DHT22;1372;47.956;7.830;2022-09-28T14:13:56;11.70;99.90
2729;DHT22;1372;47.956;7.830;2022-09-28T14:16:27;11.70;99.90
2729;DHT22;1372;47.956;7.830;2022-09-28T14:19:04;11.70;99.90
2729;DHT22;1372;47.956;7.830;2022-09-28T14:21:58;11.80;99.90
2729;DHT22;1372;47.956;7.830;2022-09-28T14:25:02;11.70;99.90
2729;DHT22;1372;47.956;7.830;2022-09-28T14:27:59;11.70;99.90
2729;DHT22;1372;47.956;7.830;2022-09-28T14:30:44;11.70;99.90
2729;DHT22;1372;47.956;7.830;2022-09-28T14:33:24;11.60;99.90
2729;DHT22;1372;47.956;7.830;2022-09-28T14:35:56;11.70;99.90
2729;DHT22;1372;47.956;7.830;2022-09-28T14:38:30;11.70;99.90
2729;DHT22;1372;47.956;7.830;2022-09-28T14:41:30;11.80;99.90
2729;DHT22;1372;47.956;7.830;2022-09-28T14:44:06;11.80;99.90
2729;DHT22;1372;47.956;7.830;2022-09-28T14:46:37;11.80;99.90
2729;DHT22;1372;47.956;7.830;2022-09-28T14:49:47;11.80;99.90
2729;DHT22;1372;47.956;7.830;2022-09-28T14:52:45;11.70;99.90
2729;DHT22;1372;47.956;7.830;2022-09-28T14:55:16;11.60;99.90
2729;DHT22;1372;47.956;7.830;2022-09-28T14:57:54;11.70;99.90
2729;DHT22;1372;47.956;7.830;2022-09-28T15:00:26;11.70;99.90
2729;DHT22;1372;47.956;7.830;2022-09-28T15:03:02;11.60;99.90
2729;DHT22;1372;47.956;7.830;2022-09-28T15:05:41;11.60;99.90
2729;DHT22;1372;47.956;7.830;2022-09-28T15:08:16;11.60;99.90
2729;DHT22;1372;47.956;7.830;2022-09-28T15:10:48;11.50;99.90
2729;DHT22;1372;47.956;7.830;2022-09-28T15:13:23;11.60;99.90
2729;DHT22;1372;47.956;7.830;2022-09-28T15:15:59;11.50;99.90
2729;DHT22;1372;47.956;7.830;2022-09-28T15:19:07;11.50;99.90
2729;DHT22;1372;47.956;7.830;2022-09-28T15:21:47;11.60;99.90
2729;DHT22;1372;47.956;7.830;2022-09-28T15:24:29;11.60;99.90
2729;DHT22;1372;47.956;7.830;2022-09-28T15:27:01;11.60;99.90
2729;DHT22;1372;47.956;7.830;2022-09-28T15:29:32;11.60;99.90
2729;DHT22;1372;47.956;7.830;2022-09-28T15:32:03;11.50;99.90
2729;DHT22;1372;47.956;7.830;2022-09-28T15:34:34;11.40;99.90
2729;DHT22;1372;47.956;7.830;2022-09-28T15:37:20;11.40;99.90
2729;DHT22;1372;47.956;7.830;2022-09-28T15:39:50;11.40;99.90
2729;DHT22;1372;47.956;7.830;2022-09-28T15:42:20;11.40;99.90
2729;DHT22;1372;47.956;7.830;2022-09-28T15:45:19;11.20;99.90
2729;DHT22;1372;47.956;7.830;2022-09-28T15:47:54;11.20;99.90
2729;DHT22;1372;47.956;7.830;2022-09-28T15:50:27;11.20;99.90
2729;DHT22;1372;47.956;7.830;2022-09-28T15:52:58;11.10;99.90
2729;DHT22;1372;47.956;7.830;2022-09-28T15:55:30;11.10;99.90
2729;DHT22;1372;47.956;7.830;2022-09-28T15:58:14;11.00;99.90
2729;DHT22;1372;47.956;7.830;2022-09-28T16:00:50;11.10;99.90
2729;DHT22;1372;47.956;7.830;2022-09-28T16:03:49;11.10;99.90
2729;DHT22;1372;47.956;7.830;2022-09-28T16:06:18;11.20;99.90
2729;DHT22;1372;47.956;7.830;2022-09-28T16:08:51;11.20;99.90
2729;DHT22;1372;47.956;7.830;2022-09-28T16:11:22;11.20;99.90
2729;DHT22;1372;47.956;7.830;2022-09-28T16:13:58;11.20;99.90
2729;DHT22;1372;47.956;7.830;2022-09-28T16:16:36;11.20;99.90
2729;DHT22;1372;47.956;7.830;2022-09-28T16:19:17;11.10;99.90
2729;DHT22;1372;47.956;7.830;2022-09-28T16:21:54;11.10;99.90
2729;DHT22;1372;47.956;7.830;2022-09-28T16:24:31;11.10;99.90
2729;DHT22;1372;47.956;7.830;2022-09-28T16:27:05;11.00;99.90
2729;DHT22;1372;47.956;7.830;2022-09-28T16:29:37;11.10;99.90
2729;DHT22;1372;47.956;7.830;2022-09-28T16:32:34;11.10;99.90
2729;DHT22;1372;47.956;7.830;2022-09-28T16:35:18;11.00;99.90
2729;DHT22;1372;47.956;7.830;2022-09-28T16:37:59;10.90;99.90
2729;DHT22;1372;47.956;7.830;2022-09-28T16:40:35;10.90;99.90
2729;DHT22;1372;47.956;7.830;2022-09-28T16:43:07;10.90;99.90
2729;DHT22;1372;47.956;7.830;2022-09-28T16:45:39;10.90;99.90
2729;DHT22;1372;47.956;7.830;2022-09-28T16:48:12;10.90;99.90
2729;DHT22;1372;47.956;7.830;2022-09-28T16:50:46;10.90;99.90
2729;DHT22;1372;47.956;7.830;2022-09-28T16:53:16;10.80;99.90
2729;DHT22;1372;47.956;7.830;2022-09-28T16:56:03;10.80;99.90
2729;DHT22;1372;47.956;7.830;2022-09-28T16:58:32;10.80;99.90
2729;DHT22;1372;47.956;7.830;2022-09-28T17:01:01;10.90;99.90
2729;DHT22;1372;47.956;7.830;2022-09-28T17:03:33;11.00;99.90
2729;DHT22;1372;47.956;7.830;2022-09-28T17:06:02;11.00;99.90
2729;DHT22;1372;47.956;7.830;2022-09-28T17:08:32;10.90;99.90
2729;DHT22;1372;47.956;7.830;2022-09-28T17:11:01;10.80;99.90
2729;DHT22;1372;47.956;7.830;2022-09-28T17:13:50;10.80;99.90
2729;DHT22;1372;47.956;7.830;2022-09-28T17:16:26;10.80;99.90
2729;DHT22;1372;47.956;7.830;2022-09-28T17:19:20;10.80;99.90
2729;DHT22;1372;47.956;7.830;2022-09-28T17:21:51;10.70;99.90
2729;DHT22;1372;47.956;7.830;2022-09-28T17:24:20;10.70;99.90
2729;DHT22;1372;47.956;7.830;2022-09-28T17:26:50;10.60;99.90
2729;DHT22;1372;47.956;7.830;2022-09-28T17:29:19;10.50;99.90
2729;DHT22;1372;47.956;7.830;2022-09-28T17:31:47;10.40;99.90
2729;DHT22;1372;47.956;7.830;2022-09-28T17:34:16;10.50;99.90
2729;DHT22;1372;47.956;7.830;2022-09-28T17:36:47;10.50;99.90
2729;DHT22;1372;47.956;7.830;2022-09-28T17:39:17;10.50;99.90
2729;DHT22;1372;47.956;7.830;2022-09-28T17:41:46;10.40;99.90
2729;DHT22;1372;47.956;7.830;2022-09-28T17:44:14;10.40;99.90
2729;DHT22;1372;47.956;7.830;2022-09-28T17:46:45;10.40;99.90
2729;DHT22;1372;47.956;7.830;2022-09-28T17:49:15;10.50;99.90
2729;DHT22;1372;47.956;7.830;2022-09-28T17:51:44;10.50;99.90
2729;DHT22;1372;47.956;7.830;2022-09-28T17:54:14;10.40;99.90
2729;DHT22;1372;47.956;7.830;2022-09-28T17:56:49;10.30;99.90
2729;DHT22;1372;47.956;7.830;2022-09-28T17:59:17;10.30;99.90
2729;DHT22;1372;47.956;7.830;2022-09-28T18:01:46;10.30;99.90
2729;DHT22;1372;47.956;7.830;2022-09-28T18:04:14;10.30;99.90
2729;DHT22;1372;47.956;7.830;2022-09-28T18:07:03;10.30;99.90
2729;DHT22;1372;47.956;7.830;2022-09-28T18:09:33;10.30;99.90
2729;DHT22;1372;47.956;7.830;2022-09-28T18:12:03;10.30;99.90
2729;DHT22;1372;47.956;7.830;2022-09-28T18:14:32;10.30;99.90
2729;DHT22;1372;47.956;7.830;2022-09-28T18:17:02;10.30;99.90
2729;DHT22;1372;47.956;7.830;2022-09-28T18:19:30;10.30;99.90
2729;DHT22;1372;47.956;7.830;2022-09-28T18:22:01;10.30;99.90
2729;DHT22;1372;47.956;7.830;2022-09-28T18:24:30;10.40;99.90
2729;DHT22;1372;47.956;7.830;2022-09-28T18:27:00;10.40;99.90
2729;DHT22;1372;47.956;7.830;2022-09-28T18:29:29;10.40;99.90
2729;DHT22;1372;47.956;7.830;2022-09-28T18:32:00;10.40;99.90
2729;DHT22;1372;47.956;7.830;2022-09-28T18:34:29;10.40;99.90
2729;DHT22;1372;47.956;7.830;2022-09-28T18:36:58;10.40;99.90
2729;DHT22;1372;47.956;7.830;2022-09-28T18:39:26;10.40;99.90
2729;DHT22;1372;47.956;7.830;2022-09-28T18:41:56;10.40;99.90
2729;DHT22;1372;47.956;7.830;2022-09-28T18:44:26;10.40;99.90
2729;DHT22;1372;47.956;7.830;2022-09-28T18:46:55;10.50;99.90
2729;DHT22;1372;47.956;7.830;2022-09-28T18:49:23;10.50;99.90